createdAt,value
2022-10-19T00:00:20.423Z,15.14
2022-10-19T00:01:20.476Z,15.3
2022-10-19T00:02:20.762Z,15.14
2022-10-19T00:03:25.693Z,15.17
2022-10-19T00:04:20.435Z,15.23
2022-10-19T00:05:20.442Z,15.12
2022-10-19T00:06:20.468Z,15.14
2022-10-19T00:07:20.444Z,15.08
2022-10-19T00:08:20.438Z,15.11
2022-10-19T00:09:20.500Z,15.17
2022-10-19T00:10:20.451Z,15.11
2022-10-19T00:11:21.529Z,15.19
2022-10-19T00:12:20.471Z,15.23
2022-10-19T00:13:20.453Z,15.12
2022-10-19T00:14:20.453Z,15.15
2022-10-19T00:15:20.460Z,15.18
2022-10-19T00:16:20.474Z,15.26
2022-10-19T00:17:20.456Z,15.19
2022-10-19T00:18:20.467Z,15.15
2022-10-19T00:19:20.479Z,15.29
2022-10-19T00:20:20.483Z,15.25
2022-10-19T00:21:20.460Z,15.32
2022-10-19T00:22:23.485Z,15.22
2022-10-19T00:23:20.462Z,15.19
2022-10-19T00:24:20.471Z,15.18
2022-10-19T00:25:20.522Z,15.17
2022-10-19T00:26:20.479Z,15.22
2022-10-19T00:27:20.493Z,15.3
2022-10-19T00:28:20.505Z,15.22
2022-10-19T00:29:20.609Z,15.23
2022-10-19T00:30:20.482Z,15.12
2022-10-19T00:31:20.492Z,15.05
2022-10-19T00:32:20.512Z,15.11
2022-10-19T00:33:23.573Z,15.1
2022-10-19T00:34:20.503Z,15.12
2022-10-19T00:35:20.492Z,15.04
2022-10-19T00:36:20.527Z,15.07
2022-10-19T00:37:20.527Z,15.05
2022-10-19T00:38:20.551Z,14.94
2022-10-19T00:39:20.505Z,15.02
2022-10-19T00:40:20.540Z,14.97
2022-10-19T00:41:20.589Z,15.07
2022-10-19T00:42:20.488Z,15.07
2022-10-19T00:43:20.500Z,14.97
2022-10-19T00:44:23.422Z,14.93
2022-10-19T00:45:20.501Z,14.99
2022-10-19T00:46:20.530Z,14.94
2022-10-19T00:47:20.530Z,14.99
2022-10-19T00:48:20.515Z,14.96
2022-10-19T00:49:20.515Z,14.94
2022-10-19T00:50:20.513Z,14.99
2022-10-19T00:51:20.546Z,15
2022-10-19T00:52:20.540Z,15
2022-10-19T00:53:20.533Z,14.9
2022-10-19T00:54:20.528Z,14.85
2022-10-19T00:55:23.562Z,14.89
2022-10-19T00:56:20.566Z,14.89
2022-10-19T00:57:20.592Z,15
2022-10-19T00:58:20.532Z,14.9
2022-10-19T00:59:20.526Z,14.96
2022-10-19T01:00:20.578Z,14.94
2022-10-19T01:01:20.826Z,14.9
2022-10-19T01:02:20.541Z,14.79
2022-10-19T01:03:23.381Z,14.82
2022-10-19T01:04:20.529Z,14.81
2022-10-19T01:05:20.544Z,14.85
2022-10-19T01:06:23.315Z,14.9
2022-10-19T01:07:20.540Z,14.86
2022-10-19T01:08:20.547Z,14.86
2022-10-19T01:09:20.571Z,14.96
2022-10-19T01:10:20.583Z,14.85
2022-10-19T01:11:26.396Z,14.93
2022-10-19T01:12:20.558Z,14.89
2022-10-19T01:13:20.598Z,14.94
2022-10-19T01:14:20.561Z,14.87
2022-10-19T01:15:20.665Z,14.9
2022-10-19T01:16:20.587Z,14.89
2022-10-19T01:17:23.440Z,14.89
2022-10-19T01:18:20.569Z,14.81
2022-10-19T01:19:20.687Z,14.9
2022-10-19T01:20:20.568Z,14.87
2022-10-19T01:21:20.567Z,14.81
2022-10-19T01:22:21.838Z,14.81
2022-10-19T01:23:20.576Z,14.86
2022-10-19T01:24:20.565Z,14.78
2022-10-19T01:25:20.570Z,14.86
2022-10-19T01:26:20.770Z,14.87
2022-10-19T01:27:20.591Z,14.78
2022-10-19T01:28:23.386Z,14.79
2022-10-19T01:29:20.597Z,14.7
2022-10-19T01:30:20.670Z,14.71
2022-10-19T01:31:20.586Z,14.82
2022-10-19T01:32:20.647Z,14.74
2022-10-19T01:33:23.660Z,14.66
2022-10-19T01:34:20.585Z,14.74
2022-10-19T01:35:20.590Z,14.63
2022-10-19T01:36:20.592Z,14.55
2022-10-19T01:37:20.613Z,14.67
2022-10-19T01:38:20.617Z,14.67
2022-10-19T01:39:20.600Z,14.63
2022-10-19T01:40:20.602Z,14.61
2022-10-19T01:41:20.598Z,14.51
2022-10-19T01:42:20.617Z,14.61
2022-10-19T01:43:20.617Z,14.59
2022-10-19T01:44:23.736Z,14.55
2022-10-19T01:45:20.610Z,14.61
2022-10-19T01:46:20.621Z,14.61
2022-10-19T01:47:20.624Z,14.58
2022-10-19T01:48:20.666Z,14.63
2022-10-19T01:49:20.617Z,14.73
2022-10-19T01:50:20.617Z,14.62
2022-10-19T01:51:20.621Z,14.61
2022-10-19T01:52:20.650Z,14.55
2022-10-19T01:53:20.653Z,14.59
2022-10-19T01:54:20.619Z,14.53
2022-10-19T01:55:23.435Z,14.55
2022-10-19T01:56:20.627Z,14.59
2022-10-19T01:57:20.638Z,14.58
2022-10-19T01:58:20.640Z,14.59
2022-10-19T01:59:20.831Z,14.55
2022-10-19T02:00:20.676Z,14.58
2022-10-19T02:01:20.684Z,14.41
2022-10-19T02:02:20.666Z,14.43
2022-10-19T02:03:23.617Z,14.49
2022-10-19T02:04:20.669Z,14.38
2022-10-19T02:05:20.633Z,14.4
2022-10-19T02:06:23.760Z,14.36
2022-10-19T02:07:20.663Z,14.36
2022-10-19T02:08:20.653Z,14.44
2022-10-19T02:09:20.659Z,14.4
2022-10-19T02:10:20.682Z,14.43
2022-10-19T02:11:20.652Z,14.55
2022-10-19T02:12:20.672Z,14.51
2022-10-19T02:13:21.082Z,14.55
2022-10-19T02:14:20.656Z,14.59
2022-10-19T02:15:20.653Z,14.59
2022-10-19T02:16:20.708Z,14.52
2022-10-19T02:17:20.681Z,14.62
2022-10-19T02:18:20.665Z,14.58
2022-10-19T02:19:20.836Z,14.63
2022-10-19T02:20:20.688Z,14.55
2022-10-19T02:21:20.687Z,14.55
2022-10-19T02:22:20.707Z,14.51
2022-10-19T02:23:20.670Z,14.53
2022-10-19T02:24:20.667Z,14.53
2022-10-19T02:25:20.683Z,14.44
2022-10-19T02:26:20.786Z,14.45
2022-10-19T02:27:20.716Z,14.44
2022-10-19T02:28:20.890Z,14.51
2022-10-19T02:29:20.687Z,14.4
2022-10-19T02:30:20.682Z,14.45
2022-10-19T02:31:20.698Z,14.55
2022-10-19T02:32:20.792Z,14.43
2022-10-19T02:33:20.687Z,14.44
2022-10-19T02:34:20.694Z,14.51
2022-10-19T02:35:20.743Z,14.37
2022-10-19T02:36:20.708Z,14.4
2022-10-19T02:37:24.832Z,14.48
2022-10-19T02:38:21.766Z,14.45
2022-10-19T02:39:20.689Z,14.45
2022-10-19T02:40:20.704Z,14.49
2022-10-19T02:41:20.769Z,14.49
2022-10-19T02:42:20.725Z,14.49
2022-10-19T02:43:20.708Z,14.55
2022-10-19T02:44:20.719Z,14.49
2022-10-19T02:45:20.754Z,14.45
2022-10-19T02:46:20.706Z,14.51
2022-10-19T02:47:23.497Z,14.43
2022-10-19T02:48:20.796Z,14.41
2022-10-19T02:49:23.889Z,14.45
2022-10-19T02:50:20.732Z,14.45
2022-10-19T02:51:20.746Z,14.51
2022-10-19T02:52:20.750Z,14.44
2022-10-19T02:53:20.718Z,14.41
2022-10-19T02:54:20.741Z,14.45
2022-10-19T02:55:20.722Z,14.45
2022-10-19T02:56:20.735Z,14.45
2022-10-19T02:57:20.825Z,14.41
2022-10-19T02:58:20.726Z,14.44
2022-10-19T02:59:20.752Z,14.51
2022-10-19T03:00:23.804Z,14.48
2022-10-19T03:01:20.879Z,14.43
2022-10-19T03:02:20.765Z,14.43
2022-10-19T03:03:20.766Z,14.49
2022-10-19T03:04:20.766Z,14.4
2022-10-19T03:05:20.766Z,14.38
2022-10-19T03:06:20.743Z,14.44
2022-10-19T03:07:20.809Z,14.44
2022-10-19T03:08:20.788Z,14.38
2022-10-19T03:09:20.741Z,14.44
2022-10-19T03:10:20.767Z,14.44
2022-10-19T03:11:23.757Z,14.43
2022-10-19T03:12:20.772Z,14.43
2022-10-19T03:13:20.751Z,14.48
2022-10-19T03:14:20.754Z,14.44
2022-10-19T03:15:20.764Z,14.41
2022-10-19T03:16:20.758Z,14.4
2022-10-19T03:17:20.777Z,14.43
2022-10-19T03:18:20.762Z,14.49
2022-10-19T03:19:20.804Z,14.41
2022-10-19T03:20:20.824Z,14.38
2022-10-19T03:21:20.767Z,14.37
2022-10-19T03:22:22.391Z,14.38
2022-10-19T03:23:20.863Z,14.36
2022-10-19T03:24:20.805Z,14.31
2022-10-19T03:25:20.777Z,14.4
2022-10-19T03:26:20.821Z,14.34
2022-10-19T03:27:20.817Z,14.36
2022-10-19T03:28:20.782Z,14.43
2022-10-19T03:29:20.798Z,14.4
2022-10-19T03:30:23.512Z,14.38
2022-10-19T03:31:20.786Z,14.43
2022-10-19T03:32:20.832Z,14.38
2022-10-19T03:34:20.806Z,14.44
2022-10-19T03:35:20.840Z,14.37
2022-10-19T03:36:20.875Z,14.37
2022-10-19T03:37:20.808Z,14.28
2022-10-19T03:38:23.905Z,14.43
2022-10-19T03:39:20.869Z,14.36
2022-10-19T03:40:20.891Z,14.4
2022-10-19T03:41:20.836Z,14.38
2022-10-19T03:42:20.881Z,14.43
2022-10-19T03:43:20.861Z,14.43
2022-10-19T03:44:26.328Z,14.38
2022-10-19T03:45:20.812Z,14.38
2022-10-19T03:46:20.881Z,14.49
2022-10-19T03:47:20.904Z,14.37
2022-10-19T03:48:20.835Z,14.51
2022-10-19T03:49:21.894Z,14.41
2022-10-19T03:50:20.815Z,14.43
2022-10-19T03:51:20.851Z,14.4
2022-10-19T03:52:20.850Z,14.33
2022-10-19T03:53:20.989Z,14.43
2022-10-19T03:54:22.472Z,14.44
2022-10-19T03:55:23.599Z,14.36
2022-10-19T03:56:20.903Z,14.4
2022-10-19T03:57:20.926Z,14.36
2022-10-19T03:58:20.856Z,14.4
2022-10-19T03:59:20.832Z,14.34
2022-10-19T04:00:23.600Z,14.38
2022-10-19T04:01:21.080Z,14.44
2022-10-19T04:02:20.843Z,14.36
2022-10-19T04:03:20.834Z,14.36
2022-10-19T04:04:20.848Z,14.41
2022-10-19T04:05:20.863Z,14.4
2022-10-19T04:06:29.603Z,14.34
2022-10-19T04:07:20.956Z,14.41
2022-10-19T04:08:20.888Z,14.43
2022-10-19T04:09:20.847Z,14.41
2022-10-19T04:10:20.845Z,14.41
2022-10-19T04:11:23.954Z,14.43
2022-10-19T04:12:20.919Z,14.38
2022-10-19T04:13:20.870Z,14.33
2022-10-19T04:14:58.034Z,14.43
2022-10-19T04:15:20.856Z,14.44
2022-10-19T04:16:20.856Z,14.44
2022-10-19T04:17:20.957Z,14.43
2022-10-19T04:18:20.867Z,14.44
2022-10-19T04:19:20.869Z,14.51
2022-10-19T04:20:20.876Z,14.43
2022-10-19T04:21:20.874Z,14.33
2022-10-19T04:22:23.722Z,14.4
2022-10-19T04:23:21.939Z,14.38
2022-10-19T04:24:20.907Z,14.34
2022-10-19T04:25:20.875Z,14.45
2022-10-19T04:26:20.886Z,14.44
2022-10-19T04:27:20.922Z,14.43
2022-10-19T04:28:20.886Z,14.3
2022-10-19T04:29:21.992Z,14.28
2022-10-19T04:30:20.892Z,14.43
2022-10-19T04:31:20.889Z,14.36
2022-10-19T04:32:20.890Z,14.38
2022-10-19T04:33:23.641Z,14.34
2022-10-19T04:34:20.891Z,14.41
2022-10-19T04:35:20.902Z,14.4
2022-10-19T04:36:20.898Z,14.38
2022-10-19T04:37:20.908Z,14.36
2022-10-19T04:38:20.938Z,14.41
2022-10-19T04:39:20.902Z,14.48
2022-10-19T04:40:20.933Z,14.38
2022-10-19T04:41:20.900Z,14.43
2022-10-19T04:42:20.906Z,14.4
2022-10-19T04:43:20.928Z,14.41
2022-10-19T04:44:21.195Z,14.36
2022-10-19T04:45:20.923Z,14.23
2022-10-19T04:46:20.915Z,14.25
2022-10-19T04:47:20.917Z,14.18
2022-10-19T04:48:20.922Z,14.25
2022-10-19T04:49:27.849Z,14.3
2022-10-19T04:50:20.917Z,14.19
2022-10-19T04:51:20.915Z,14.2
2022-10-19T04:52:20.925Z,14.28
2022-10-19T04:53:21.215Z,14.23
2022-10-19T04:54:20.951Z,14.2
2022-10-19T04:55:20.932Z,14.13
2022-10-19T04:56:20.990Z,14.11
2022-10-19T04:57:20.938Z,14.13
2022-10-19T04:58:20.953Z,14.13
2022-10-19T04:59:20.991Z,14.11
2022-10-19T05:00:20.943Z,14.11
2022-10-19T05:01:21.184Z,14.15
2022-10-19T05:02:20.940Z,14.11
2022-10-19T05:03:20.952Z,14.13
2022-10-19T05:04:21.038Z,14.03
2022-10-19T05:05:23.841Z,13.97
2022-10-19T05:06:20.943Z,14.08
2022-10-19T05:07:23.975Z,14.11
2022-10-19T05:08:20.957Z,14.01
2022-10-19T05:09:22.063Z,14.08
2022-10-19T05:10:20.981Z,13.95
2022-10-19T05:11:20.954Z,13.94
2022-10-19T05:12:20.979Z,13.79
2022-10-19T05:13:20.976Z,13.8
2022-10-19T05:14:21.158Z,14.01
2022-10-19T05:15:21.022Z,13.94
2022-10-19T05:16:23.736Z,14.01
2022-10-19T05:17:21.057Z,13.95
2022-10-19T05:18:20.964Z,13.94
2022-10-19T05:19:20.961Z,13.97
2022-10-19T05:20:20.982Z,13.94
2022-10-19T05:21:20.974Z,13.95
2022-10-19T05:22:20.969Z,13.97
2022-10-19T05:23:21.155Z,13.97
2022-10-19T05:24:20.979Z,14.01
2022-10-19T05:25:20.977Z,14.03
2022-10-19T05:26:21.007Z,13.89
2022-10-19T05:27:24.338Z,13.97
2022-10-19T05:28:20.980Z,13.94
2022-10-19T05:29:21.003Z,13.97
2022-10-19T05:30:21.035Z,14.03
2022-10-19T05:31:21.026Z,14.08
2022-10-19T05:32:21.014Z,14.04
2022-10-19T05:33:21.024Z,14.05
2022-10-19T05:34:21.005Z,14.11
2022-10-19T05:35:25.113Z,13.97
2022-10-19T05:36:21.017Z,14.04
2022-10-19T05:37:20.997Z,13.98
2022-10-19T05:38:24.120Z,14.07
2022-10-19T05:39:21.039Z,14.08
2022-10-19T05:40:21.001Z,14.04
2022-10-19T05:41:20.999Z,14.08
2022-10-19T05:42:21.034Z,14.13
2022-10-19T05:43:21.303Z,14.05
2022-10-19T05:44:21.014Z,14
2022-10-19T05:45:21.015Z,14.01
2022-10-19T05:46:21.021Z,14.03
2022-10-19T05:47:21.041Z,14.08
2022-10-19T05:48:21.043Z,14.11
2022-10-19T05:49:24.035Z,14.16
2022-10-19T05:50:21.019Z,14.11
2022-10-19T05:51:21.020Z,14.13
2022-10-19T05:52:21.071Z,14.11
2022-10-19T05:53:21.058Z,14.15
2022-10-19T05:54:21.865Z,14.12
2022-10-19T06:00:41.509Z,14.12
2022-10-19T06:01:21.069Z,14.16
2022-10-19T06:02:27.422Z,14.18
2022-10-19T06:03:22.836Z,14.25
2022-10-19T06:04:28.355Z,14.11
2022-10-19T06:05:55.723Z,13.94
2022-10-19T06:07:21.075Z,14.13
2022-10-19T06:08:21.073Z,14.11
2022-10-19T06:09:21.289Z,14.18
2022-10-19T06:10:24.144Z,14.13
2022-10-19T06:11:24.451Z,14.05
2022-10-19T06:12:24.939Z,14.11
2022-10-19T06:13:21.117Z,14.11
2022-10-19T06:14:36.176Z,14.08
2022-10-19T06:15:24.196Z,14.15
2022-10-19T06:16:21.119Z,14.16
2022-10-19T06:17:21.088Z,14.11
2022-10-19T06:18:21.060Z,14.13
2022-10-19T06:19:21.280Z,14.18
2022-10-19T06:20:21.077Z,14.15
2022-10-19T06:21:24.137Z,14.08
2022-10-19T06:22:21.071Z,14.15
2022-10-19T06:23:21.091Z,14.11
2022-10-19T06:24:21.098Z,14.19
2022-10-19T06:25:24.900Z,14.2
2022-10-19T06:26:24.181Z,14.19
2022-10-19T06:27:21.257Z,14.18
2022-10-19T06:28:21.083Z,14.15
2022-10-19T06:29:21.089Z,14.19
2022-10-19T06:30:21.471Z,14.15
2022-10-19T06:31:21.096Z,14.22
2022-10-19T06:32:21.109Z,14.15
2022-10-19T06:33:21.145Z,14.22
2022-10-19T06:34:21.370Z,14.22
2022-10-19T06:35:21.122Z,14.22
2022-10-19T06:36:21.226Z,14.15
2022-10-19T06:37:33.985Z,14.16
2022-10-19T06:38:21.099Z,14.23
2022-10-19T06:39:21.575Z,14.16
2022-10-19T06:40:21.348Z,14.15
2022-10-19T06:41:21.116Z,14.12
2022-10-19T06:42:21.095Z,14.05
2022-10-19T06:43:21.165Z,14.07
2022-10-19T06:44:21.116Z,14.18
2022-10-19T06:45:21.119Z,14.11
2022-10-19T06:46:21.115Z,14.11
2022-10-19T06:47:21.104Z,13.95
2022-10-19T06:48:21.146Z,13.95
2022-10-19T06:49:21.145Z,13.97
2022-10-19T06:50:21.122Z,13.98
2022-10-19T06:51:21.155Z,13.93
2022-10-19T06:52:21.120Z,13.8
2022-10-19T06:53:24.186Z,13.76
2022-10-19T06:54:21.134Z,13.79
2022-10-19T06:55:21.154Z,13.8
2022-10-19T06:56:21.133Z,13.75
2022-10-19T06:57:21.135Z,13.8
2022-10-19T06:58:21.140Z,13.76
2022-10-19T06:59:21.182Z,13.87
2022-10-19T07:00:21.149Z,13.67
2022-10-19T07:01:21.461Z,13.65
2022-10-19T07:02:21.170Z,13.82
2022-10-19T07:03:21.164Z,13.73
2022-10-19T07:04:23.992Z,13.79
2022-10-19T07:05:21.161Z,13.73
2022-10-19T07:06:21.157Z,13.82
2022-10-19T07:07:21.187Z,13.8
2022-10-19T07:08:21.145Z,13.82
2022-10-19T07:09:23.933Z,13.73
2022-10-19T07:10:21.174Z,13.76
2022-10-19T07:11:21.157Z,13.83
2022-10-19T07:12:21.167Z,13.85
2022-10-19T07:13:21.170Z,13.78
2022-10-19T07:14:21.177Z,13.7
2022-10-19T07:15:21.177Z,13.68
2022-10-19T07:16:25.717Z,13.68
2022-10-19T07:17:21.176Z,13.83
2022-10-19T07:18:21.171Z,13.79
2022-10-19T07:19:21.169Z,13.83
2022-10-19T07:20:24.310Z,13.83
2022-10-19T07:21:21.165Z,13.93
2022-10-19T07:22:30.559Z,13.94
2022-10-19T07:23:21.197Z,13.93
2022-10-19T07:24:24.155Z,13.94
2022-10-19T07:25:21.183Z,13.89
2022-10-19T07:26:27.338Z,13.85
2022-10-19T07:27:21.173Z,13.86
2022-10-19T07:28:21.225Z,13.89
2022-10-19T07:29:21.189Z,13.94
2022-10-19T07:30:22.252Z,13.95
2022-10-19T07:31:24.011Z,13.91
2022-10-19T07:32:24.260Z,14
2022-10-19T07:33:22.272Z,13.86
2022-10-19T07:34:23.086Z,13.95
2022-10-19T07:35:21.217Z,14.01
2022-10-19T07:36:21.261Z,13.85
2022-10-19T07:37:21.213Z,13.89
2022-10-19T07:38:21.204Z,13.91
2022-10-19T07:39:21.231Z,13.87
2022-10-19T07:40:21.204Z,13.85
2022-10-19T07:41:22.294Z,13.94
2022-10-19T07:42:24.093Z,13.83
2022-10-19T07:43:21.221Z,13.76
2022-10-19T07:44:21.210Z,13.85
2022-10-19T07:45:21.219Z,13.86
2022-10-19T07:46:21.229Z,13.83
2022-10-19T07:47:21.265Z,13.73
2022-10-19T07:48:21.212Z,13.85
2022-10-19T07:49:21.263Z,13.78
2022-10-19T07:50:21.224Z,13.73
2022-10-19T07:51:21.411Z,13.75
2022-10-19T07:52:21.291Z,13.85
2022-10-19T07:53:24.250Z,13.73
2022-10-19T07:54:21.242Z,13.76
2022-10-19T07:55:21.294Z,13.76
2022-10-19T07:56:21.244Z,13.78
2022-10-19T07:57:21.267Z,13.76
2022-10-19T07:58:21.236Z,13.73
2022-10-19T07:59:21.241Z,13.79
2022-10-19T08:00:21.241Z,13.76
2022-10-19T08:01:21.250Z,13.8
2022-10-19T08:02:21.884Z,13.64
2022-10-19T08:05:00.085Z,13.57
2022-10-19T08:05:18.433Z,13.6
2022-10-19T08:06:17.092Z,13.55
2022-10-19T08:07:20.024Z,13.57
2022-10-19T08:08:17.214Z,13.54
2022-10-19T08:10:07.935Z,13.54
2022-10-19T08:10:17.340Z,13.65
2022-10-19T08:11:17.319Z,13.46
2022-10-19T08:12:23.158Z,13.55
2022-10-19T08:13:17.314Z,13.62
2022-10-19T08:14:17.356Z,13.55
2022-10-19T08:15:17.311Z,13.6
2022-10-19T08:16:17.308Z,13.61
2022-10-19T08:17:17.321Z,13.52
2022-10-19T08:18:17.326Z,13.5
2022-10-19T08:19:17.311Z,13.46
2022-10-19T08:20:20.277Z,13.55
2022-10-19T08:21:17.315Z,13.6
2022-10-19T08:22:17.329Z,13.64
2022-10-19T08:23:20.132Z,13.67
2022-10-19T08:24:17.331Z,13.71
2022-10-19T08:25:17.328Z,13.68
2022-10-19T08:26:17.323Z,13.65
2022-10-19T08:27:17.370Z,13.6
2022-10-19T08:28:17.338Z,13.65
2022-10-19T08:29:17.395Z,13.68
2022-10-19T08:30:17.345Z,13.54
2022-10-19T08:31:20.169Z,13.61
2022-10-19T08:32:17.330Z,13.65
2022-10-19T08:33:17.328Z,13.65
2022-10-19T08:34:17.334Z,13.54
2022-10-19T08:35:17.353Z,13.8
2022-10-19T08:36:17.368Z,13.8
2022-10-19T08:37:46.300Z,13.78
2022-10-19T08:38:17.346Z,13.75
2022-10-19T08:39:17.430Z,13.79
2022-10-19T08:40:17.539Z,13.67
2022-10-19T08:41:17.346Z,13.73
2022-10-19T08:42:20.113Z,13.73
2022-10-19T08:43:17.396Z,13.71
2022-10-19T08:44:17.350Z,13.73
2022-10-19T08:45:17.348Z,13.71
2022-10-19T08:46:17.348Z,13.57
2022-10-19T08:47:23.155Z,13.73
2022-10-19T08:48:17.386Z,13.7
2022-10-19T08:49:17.363Z,13.79
2022-10-19T08:50:17.375Z,13.76
2022-10-19T08:51:17.359Z,13.79
2022-10-19T08:52:17.362Z,13.75
2022-10-19T08:53:20.524Z,13.86
2022-10-19T08:54:17.366Z,13.73
2022-10-19T08:55:23.026Z,13.83
2022-10-19T08:57:01.487Z,13.7
2022-10-19T08:57:17.374Z,13.87
2022-10-19T08:58:17.429Z,13.82
2022-10-19T08:59:17.407Z,13.82
2022-10-19T09:00:17.398Z,13.82
2022-10-19T09:01:17.413Z,13.75
2022-10-19T09:02:17.402Z,13.73
2022-10-19T09:03:37.438Z,13.87
2022-10-19T09:04:17.415Z,13.83
2022-10-19T09:05:17.406Z,13.82
2022-10-19T09:06:17.427Z,13.76
2022-10-19T09:07:17.396Z,13.73
2022-10-19T09:08:22.337Z,13.78
2022-10-19T09:09:20.439Z,13.7
2022-10-19T09:10:18.508Z,13.83
2022-10-19T09:11:17.475Z,13.83
2022-10-19T09:12:17.442Z,13.76
2022-10-19T09:13:17.432Z,13.93
2022-10-19T09:14:18.480Z,13.89
2022-10-19T09:15:17.439Z,13.94
2022-10-19T09:16:17.422Z,13.95
2022-10-19T09:17:17.425Z,13.93
2022-10-19T09:18:17.428Z,14
2022-10-19T09:19:17.421Z,13.93
2022-10-19T09:20:17.427Z,13.91
2022-10-19T09:21:17.414Z,14.05
2022-10-19T09:22:18.472Z,14.01
2022-10-19T09:23:18.173Z,13.98
2022-10-19T09:24:17.656Z,14.05
2022-10-19T09:25:17.427Z,14.04
2022-10-19T09:26:17.438Z,14.07
2022-10-19T09:27:17.480Z,14.11
2022-10-19T09:28:17.444Z,14.18
2022-10-19T09:29:17.430Z,14.15
2022-10-19T09:30:17.418Z,14.15
2022-10-19T09:31:17.451Z,14.2
2022-10-19T09:32:17.439Z,14.16
2022-10-19T09:33:20.113Z,14.22
2022-10-19T09:34:17.471Z,14.23
2022-10-19T09:35:17.447Z,14.22
2022-10-19T09:36:56.928Z,14.26
2022-10-19T09:37:31.640Z,14.23
2022-10-19T09:38:17.466Z,14.22
2022-10-19T09:39:17.438Z,14.34
2022-10-19T09:40:17.437Z,14.33
2022-10-19T09:41:20.647Z,14.34
2022-10-19T09:42:17.452Z,14.43
2022-10-19T09:43:17.528Z,14.34
2022-10-19T09:44:17.517Z,14.23
2022-10-19T09:45:17.450Z,14.31
2022-10-19T09:46:27.527Z,14.4
2022-10-19T09:47:21.356Z,14.44
2022-10-19T09:48:17.928Z,14.44
2022-10-19T09:49:17.483Z,14.43
2022-10-19T09:50:17.592Z,14.45
2022-10-19T09:51:17.473Z,14.51
2022-10-19T09:52:20.566Z,14.55
2022-10-19T09:53:17.485Z,14.55
2022-10-19T09:54:17.477Z,14.43
2022-10-19T09:55:17.464Z,14.51
2022-10-19T09:56:17.466Z,14.48
2022-10-19T09:57:17.485Z,14.45
2022-10-19T09:58:20.307Z,14.44
2022-10-19T09:59:17.537Z,14.53
2022-10-19T10:00:17.493Z,14.53
2022-10-19T10:01:17.483Z,14.58
2022-10-19T10:02:17.498Z,14.52
2022-10-19T10:03:19.334Z,14.45
2022-10-19T10:04:17.490Z,14.59
2022-10-19T10:05:17.488Z,14.56
2022-10-19T10:06:17.510Z,14.58
2022-10-19T10:07:17.508Z,14.59
2022-10-19T10:08:18.620Z,14.77
2022-10-19T10:09:20.273Z,14.63
2022-10-19T10:10:17.536Z,14.74
2022-10-19T10:11:17.501Z,14.62
2022-10-19T10:12:17.509Z,14.78
2022-10-19T10:13:17.521Z,14.74
2022-10-19T10:14:20.758Z,14.81
2022-10-19T10:15:17.514Z,14.79
2022-10-19T10:16:17.557Z,14.85
2022-10-19T10:17:17.513Z,14.73
2022-10-19T10:18:17.524Z,14.85
2022-10-19T10:19:17.535Z,14.99
2022-10-19T10:20:17.596Z,14.9
2022-10-19T10:21:18.839Z,14.89
2022-10-19T10:22:17.571Z,14.94
2022-10-19T10:23:17.539Z,15.02
2022-10-19T10:24:17.542Z,15.08
2022-10-19T10:25:20.652Z,14.9
2022-10-19T10:26:17.519Z,15.05
2022-10-19T10:27:17.539Z,15.04
2022-10-19T10:28:17.538Z,14.93
2022-10-19T10:29:17.532Z,14.92
2022-10-19T10:30:17.665Z,15.15
2022-10-19T10:31:17.534Z,15.12
2022-10-19T10:32:17.553Z,15.25
2022-10-19T10:33:46.131Z,15.29
2022-10-19T10:34:53.938Z,15.23
2022-10-19T10:35:17.609Z,15.27
2022-10-19T10:36:20.432Z,15.15
2022-10-19T10:37:17.534Z,15.23
2022-10-19T10:38:17.610Z,15.3
2022-10-19T10:39:17.564Z,15.44
2022-10-19T10:40:21.264Z,15.44
2022-10-19T10:41:17.569Z,15.48
2022-10-19T10:42:17.554Z,15.5
2022-10-19T10:43:17.552Z,15.57
2022-10-19T10:44:17.624Z,15.6
2022-10-19T10:45:17.552Z,15.63
2022-10-19T10:46:17.621Z,15.7
2022-10-19T10:47:20.328Z,15.63
2022-10-19T10:48:17.603Z,15.72
2022-10-19T10:49:17.585Z,15.7
2022-10-19T10:50:17.623Z,15.57
2022-10-19T10:51:17.590Z,15.59
2022-10-19T10:52:17.574Z,15.65
2022-10-19T10:53:17.577Z,15.47
2022-10-19T10:54:17.594Z,15.51
2022-10-19T10:55:17.592Z,15.55
2022-10-19T10:56:17.574Z,15.62
2022-10-19T10:57:18.605Z,15.54
2022-10-19T10:58:20.354Z,15.65
2022-10-19T10:59:17.619Z,15.69
2022-10-19T11:00:17.756Z,15.7
2022-10-19T11:01:17.818Z,15.75
2022-10-19T11:02:18.046Z,15.7
2022-10-19T11:03:17.599Z,15.65
2022-10-19T11:04:17.604Z,15.78
2022-10-19T11:05:17.589Z,15.72
2022-10-19T11:06:17.681Z,15.72
2022-10-19T11:07:17.794Z,15.78
2022-10-19T11:08:17.591Z,15.78
2022-10-19T11:09:20.713Z,15.75
2022-10-19T11:10:17.726Z,15.81
2022-10-19T11:11:17.677Z,15.85
2022-10-19T11:12:17.616Z,15.81
2022-10-19T11:13:17.668Z,15.83
2022-10-19T11:14:17.666Z,15.85
2022-10-19T11:15:17.773Z,15.92
2022-10-19T11:16:17.612Z,15.78
2022-10-19T11:17:17.617Z,15.87
2022-10-19T11:18:17.739Z,15.85
2022-10-19T11:19:17.673Z,15.84
2022-10-19T11:20:20.662Z,15.84
2022-10-19T11:21:17.658Z,15.76
2022-10-19T11:22:17.621Z,15.81
2022-10-19T11:23:17.670Z,15.94
2022-10-19T11:24:17.688Z,15.92
2022-10-19T11:25:20.368Z,16
2022-10-19T11:26:17.683Z,15.87
2022-10-19T11:27:17.832Z,15.88
2022-10-19T11:28:17.673Z,15.9
2022-10-19T11:29:20.378Z,15.87
2022-10-19T11:30:17.752Z,15.91
2022-10-19T11:31:17.669Z,15.96
2022-10-19T11:32:17.635Z,15.98
2022-10-19T11:33:17.635Z,15.94
2022-10-19T11:34:23.771Z,15.99
2022-10-19T11:35:20.476Z,15.98
2022-10-19T11:36:20.661Z,15.98
2022-10-19T11:37:17.655Z,15.88
2022-10-19T11:38:32.352Z,16
2022-10-19T11:39:17.708Z,15.96
2022-10-19T11:40:23.450Z,16.06
2022-10-19T11:41:22.444Z,16.06
2022-10-19T11:42:17.649Z,16.03
2022-10-19T11:43:17.662Z,16.03
2022-10-19T11:44:17.691Z,16.02
2022-10-19T11:45:17.659Z,16.06
2022-10-19T11:46:23.397Z,16.08
2022-10-19T11:47:20.706Z,16.13
2022-10-19T11:48:17.660Z,16.21
2022-10-19T11:49:17.684Z,16.16
2022-10-19T11:50:17.719Z,16.12
2022-10-19T11:51:33.071Z,16.21
2022-10-19T11:52:17.666Z,16.18
2022-10-19T11:53:17.675Z,16.18
2022-10-19T11:54:19.476Z,16.12
2022-10-19T11:55:17.707Z,16.16
2022-10-19T11:56:17.688Z,16.16
2022-10-19T11:57:17.887Z,16.16
2022-10-19T11:58:17.684Z,16.25
2022-10-19T11:59:17.746Z,16.47
2022-10-19T12:00:42.337Z,16.66
2022-10-19T12:01:17.680Z,16.72
2022-10-19T12:02:18.123Z,16.72
2022-10-19T12:03:18.800Z,16.73
2022-10-19T12:04:19.858Z,16.76
2022-10-19T12:05:24.865Z,16.84
2022-10-19T12:06:17.696Z,16.84
2022-10-19T12:07:17.698Z,16.89
2022-10-19T12:08:21.595Z,17.1
2022-10-19T12:09:17.902Z,17.02
2022-10-19T12:10:17.749Z,17.12
2022-10-19T12:11:17.745Z,17.17
2022-10-19T12:12:17.737Z,17.12
2022-10-19T12:13:17.707Z,17.02
2022-10-19T12:14:20.745Z,17.05
2022-10-19T12:15:17.737Z,17.13
2022-10-19T12:16:17.724Z,17.12
2022-10-19T12:17:17.744Z,17.17
2022-10-19T12:18:17.720Z,17.07
2022-10-19T12:19:19.284Z,17.02
2022-10-19T12:20:26.602Z,17.09
2022-10-19T12:21:17.786Z,17.12
2022-10-19T12:22:17.728Z,17.1
2022-10-19T12:23:17.723Z,17.16
2022-10-19T12:24:17.761Z,17.19
2022-10-19T12:25:20.565Z,17.2
2022-10-19T12:27:17.816Z,17.22
2022-10-19T12:28:17.810Z,17.24
2022-10-19T12:29:17.787Z,17.24
2022-10-19T12:30:20.594Z,17.27
2022-10-19T12:31:17.742Z,17.3
2022-10-19T12:32:17.760Z,17.32
2022-10-19T12:33:17.801Z,17.47
2022-10-19T12:34:17.786Z,17.49
2022-10-19T12:35:17.872Z,17.54
2022-10-19T12:36:20.580Z,17.54
2022-10-19T12:37:17.935Z,17.63
2022-10-19T12:38:17.743Z,17.66
2022-10-19T12:39:17.780Z,17.79
2022-10-19T12:40:17.758Z,17.82
2022-10-19T12:41:20.635Z,17.87
2022-10-19T12:42:17.760Z,17.9
2022-10-19T12:43:17.788Z,17.94
2022-10-19T12:44:17.960Z,18.02
2022-10-19T12:45:17.765Z,18.27
2022-10-19T12:46:17.764Z,18.46
2022-10-19T12:47:17.773Z,18.63
2022-10-19T12:48:17.776Z,18.78
2022-10-19T12:49:17.812Z,18.78
2022-10-19T12:50:17.945Z,18.97
2022-10-19T12:51:17.770Z,19.12
2022-10-19T12:52:20.545Z,19.05
2022-10-19T12:53:17.929Z,19.07
2022-10-19T12:54:17.800Z,19.08
2022-10-19T12:55:17.780Z,19.08
2022-10-19T12:56:17.783Z,19.08
2022-10-19T12:57:22.699Z,18.96
2022-10-19T12:58:17.789Z,19.17
2022-10-19T12:59:17.846Z,19.23
2022-10-19T13:00:17.798Z,19.34
2022-10-19T13:01:18.064Z,19.37
2022-10-19T13:02:17.793Z,19.38
2022-10-19T13:03:20.592Z,19.37
2022-10-19T13:04:17.827Z,19.29